Time;durP1;ratioP1;P1;durP2;ratioP2;P2;SDS_P1;SDS_P2;PMS_P1;PMS_P2;Temp;Humidity;BMP_temperature;BMP_pressure;BME280_temperature;BME280_humidity;BME280_pressure;Samples;Min_cycle;Max_cycle;Signal;HPM_P1;HPM_P2
2023/06/17 00:01:53;;;;;;;5.90;5.07;;;17.80;99.90;;;;;;4130611;28;20365;-63
2023/06/17 00:03:54;;;;;;;5.18;4.63;;;17.80;99.90;;;;;;4130061;28;20026;-62
2023/06/17 00:05:55;;;;;;;4.50;4.10;;;17.80;99.90;;;;;;4130953;28;20030;-67
2023/06/17 00:07:56;;;;;;;5.60;4.97;;;17.80;99.90;;;;;;4129785;28;20443;-64
2023/06/17 00:09:57;;;;;;;5.22;4.35;;;17.80;99.90;;;;;;4128599;28;20050;-62
2023/06/17 00:12:00;;;;;;;5.10;4.60;;;17.80;99.90;;;;;;4145191;28;20088;-62
2023/06/17 00:14:02;;;;;;;7.15;5.03;;;17.70;99.90;;;;;;4129818;28;20491;-63
2023/06/17 00:16:04;;;;;;;8.27;5.63;;;17.70;99.90;;;;;;4130732;28;20018;-63
2023/06/17 00:18:07;;;;;;;5.72;4.65;;;17.70;99.90;;;;;;4130094;28;20035;-62
2023/06/17 00:20:11;;;;;;;5.95;4.97;;;17.70;99.90;;;;;;4131004;28;20050;-63
2023/06/17 00:22:12;;;;;;;5.00;4.50;;;17.70;99.90;;;;;;4129488;28;20462;-63
2023/06/17 00:24:13;;;;;;;5.75;4.88;;;17.60;99.90;;;;;;4130845;28;20523;-63
2023/06/17 00:26:14;;;;;;;6.82;4.75;;;17.60;99.90;;;;;;4129827;28;20027;-63
2023/06/17 00:28:16;;;;;;;5.97;4.85;;;17.60;99.90;;;;;;4130786;28;20034;-68
2023/06/17 00:30:17;;;;;;;6.72;4.28;;;17.50;99.90;;;;;;4129317;28;20030;-65
2023/06/17 00:32:19;;;;;;;5.15;4.65;;;17.60;99.90;;;;;;4130936;28;20030;-63
2023/06/17 00:34:20;;;;;;;9.05;4.70;;;17.50;99.90;;;;;;4129561;28;20037;-67
2023/06/17 00:36:21;;;;;;;6.57;5.00;;;17.50;99.90;;;;;;4130633;28;20085;-68
2023/06/17 00:38:22;;;;;;;5.43;4.90;;;17.50;99.90;;;;;;4129461;28;20461;-69
2023/06/17 00:40:23;;;;;;;6.85;4.82;;;17.50;99.90;;;;;;4129795;28;20038;-70
2023/06/17 00:42:24;;;;;;;6.70;5.25;;;17.40;99.90;;;;;;4129868;28;20422;-62
2023/06/17 00:44:26;;;;;;;5.60;5.00;;;17.40;99.90;;;;;;4129842;28;21000;-67
2023/06/17 00:46:35;;;;;;;6.15;4.80;;;17.40;99.90;;;;;;4130137;28;20030;-65
2023/06/17 00:48:36;;;;;;;5.88;4.90;;;17.40;99.90;;;;;;4129694;28;20043;-63
2023/06/17 00:50:37;;;;;;;5.10;4.38;;;17.40;99.90;;;;;;4130549;28;20084;-71
2023/06/17 00:52:42;;;;;;;6.25;5.45;;;17.40;99.90;;;;;;4128481;28;20050;-68
2023/06/17 00:54:43;;;;;;;9.05;5.20;;;17.40;99.90;;;;;;4130367;28;20471;-64
2023/06/17 00:56:44;;;;;;;5.70;4.80;;;17.40;99.90;;;;;;4129095;28;20376;-69
2023/06/17 00:58:45;;;;;;;7.20;5.40;;;17.40;99.90;;;;;;4130427;28;20100;-69
2023/06/17 01:00:47;;;;;;;7.63;5.05;;;17.40;99.90;;;;;;4129195;28;20475;-65
2023/06/17 01:02:49;;;;;;;8.02;4.95;;;17.40;99.90;;;;;;4129873;28;20050;-62
2023/06/17 01:04:52;;;;;;;6.88;4.90;;;17.40;99.90;;;;;;4129207;28;20030;-64
2023/06/17 01:07:09;;;;;;;11.77;5.47;;;17.50;99.90;;;;;;4130050;28;20069;-63
2023/06/17 01:09:16;;;;;;;5.10;4.60;;;17.40;99.90;;;;;;4129088;28;20031;-62
2023/06/17 01:11:22;;;;;;;7.43;5.30;;;17.40;99.90;;;;;;4129751;28;20046;-63
2023/06/17 01:13:24;;;;;;;5.43;4.70;;;17.40;99.90;;;;;;4128852;28;20630;-64
2023/06/17 01:15:26;;;;;;;7.15;5.18;;;17.40;99.90;;;;;;4129090;28;20467;-63
2023/06/17 01:17:28;;;;;;;7.13;5.35;;;17.40;99.90;;;;;;4127034;28;20574;-67
2023/06/17 01:19:29;;;;;;;8.02;5.88;;;17.40;99.90;;;;;;4144652;28;20116;-63
2023/06/17 01:21:31;;;;;;;12.48;5.43;;;17.40;99.90;;;;;;4129137;28;20434;-64
2023/06/17 01:23:34;;;;;;;9.50;5.63;;;17.30;99.90;;;;;;4127576;28;20035;-71
2023/06/17 01:25:37;;;;;;;7.22;5.72;;;17.30;99.90;;;;;;4129325;28;20477;-71
2023/06/17 01:27:39;;;;;;;7.53;5.90;;;17.40;99.90;;;;;;4129144;28;20085;-63
2023/06/17 01:29:40;;;;;;;6.25;5.32;;;17.40;99.90;;;;;;4128091;28;20397;-62
2023/06/17 01:31:41;;;;;;;6.78;5.18;;;17.40;99.90;;;;;;4128735;28;20086;-64
2023/06/17 01:33:47;;;;;;;7.28;5.50;;;17.40;99.90;;;;;;4129384;28;20038;-64
2023/06/17 01:36:12;;;;;;;7.18;5.28;;;17.40;99.90;;;;;;4128274;28;20109;-64
2023/06/17 01:38:26;;;;;;;8.52;5.68;;;17.40;99.90;;;;;;4126160;28;20088;-64
2023/06/17 01:40:30;;;;;;;4.90;4.40;;;17.40;99.90;;;;;;4128453;28;20046;-63
2023/06/17 01:42:34;;;;;;;6.50;5.13;;;17.40;99.90;;;;;;4129098;28;20483;-63
2023/06/17 01:44:36;;;;;;;7.18;5.53;;;17.40;99.90;;;;;;4128441;28;20031;-65
2023/06/17 01:46:37;;;;;;;6.07;5.47;;;17.40;99.90;;;;;;4129426;28;20085;-64
2023/06/17 01:48:39;;;;;;;6.13;4.78;;;17.40;99.90;;;;;;4128494;28;20455;-67
2023/06/17 01:50:40;;;;;;;7.13;4.97;;;17.40;99.90;;;;;;4129431;28;20042;-63
2023/06/17 01:52:41;;;;;;;5.93;4.70;;;17.40;99.90;;;;;;4128146;28;20042;-63
2023/06/17 01:54:42;;;;;;;11.25;5.32;;;17.40;99.90;;;;;;4129507;28;20038;-65
2023/06/17 01:56:44;;;;;;;5.63;4.97;;;17.40;99.90;;;;;;4127932;28;20093;-65
2023/06/17 01:58:45;;;;;;;5.05;4.43;;;17.40;99.90;;;;;;4129776;28;20030;-65
2023/06/17 02:00:46;;;;;;;5.47;4.70;;;17.40;99.90;;;;;;4128307;28;20043;-69
2023/06/17 02:02:47;;;;;;;5.97;4.80;;;17.40;99.90;;;;;;4129362;28;20081;-67
2023/06/17 02:04:49;;;;;;;4.70;4.20;;;17.40;99.90;;;;;;4128089;28;20379;-70
2023/06/17 02:06:51;;;;;;;7.68;5.22;;;17.40;99.90;;;;;;4128911;28;20089;-65
2023/06/17 02:08:53;;;;;;;8.45;5.38;;;17.40;99.90;;;;;;4128593;28;20081;-66
2023/06/17 02:10:54;;;;;;;5.03;4.53;;;17.40;99.90;;;;;;4128319;28;20640;-68
2023/06/17 02:12:55;;;;;;;4.72;4.10;;;17.40;99.90;;;;;;4128892;28;20047;-64
2023/06/17 02:14:56;;;;;;;5.50;4.55;;;17.40;99.90;;;;;;4128188;28;20049;-62
2023/06/17 02:16:58;;;;;;;5.75;4.25;;;17.40;99.90;;;;;;4129478;28;20451;-66
2023/06/17 02:19:02;;;;;;;6.53;4.25;;;17.40;99.90;;;;;;4128094;28;20453;-65
2023/06/17 02:21:03;;;;;;;6.72;4.10;;;17.40;99.90;;;;;;4129316;28;20446;-65
2023/06/17 02:23:04;;;;;;;4.28;3.88;;;17.40;99.90;;;;;;4128024;28;20065;-65
2023/06/17 02:25:06;;;;;;;6.15;4.20;;;17.30;99.90;;;;;;4127112;28;20034;-64
2023/06/17 02:27:07;;;;;;;4.65;3.67;;;17.30;99.90;;;;;;4128011;28;20046;-63
2023/06/17 02:29:09;;;;;;;5.28;4.15;;;17.30;99.90;;;;;;4129213;28;20546;-62
2023/06/17 02:31:10;;;;;;;5.15;3.35;;;17.30;99.90;;;;;;4127383;28;20483;-65
2023/06/17 02:33:12;;;;;;;5.47;3.75;;;17.30;99.90;;;;;;4129096;28;20089;-67
2023/06/17 02:35:13;;;;;;;5.63;3.70;;;17.30;99.90;;;;;;4128136;28;20026;-64
2023/06/17 02:37:15;;;;;;;7.80;5.05;;;17.20;99.90;;;;;;4128733;28;20077;-63
2023/06/17 02:39:17;;;;;;;6.85;4.20;;;17.20;99.90;;;;;;4127923;28;20039;-63
2023/06/17 02:41:18;;;;;;;5.45;4.20;;;17.20;99.90;;;;;;4128596;28;20423;-65
2023/06/17 02:43:20;;;;;;;4.90;3.58;;;17.20;99.90;;;;;;4128711;28;20035;-62
2023/06/17 02:45:21;;;;;;;5.35;3.58;;;17.20;99.90;;;;;;4128519;28;20412;-65
2023/06/17 02:47:22;;;;;;;5.32;3.83;;;17.20;99.90;;;;;;4132187;28;20034;-66
2023/06/17 02:49:23;;;;;;;3.90;3.40;;;17.20;99.90;;;;;;4131296;28;20470;-62
2023/06/17 02:51:25;;;;;;;5.10;4.13;;;17.20;99.90;;;;;;4132524;28;20038;-67
2023/06/17 02:53:26;;;;;;;5.07;4.10;;;17.20;99.90;;;;;;4130312;28;20097;-64
2023/06/17 02:55:28;;;;;;;5.47;3.50;;;17.20;99.90;;;;;;4132339;28;20022;-63
2023/06/17 02:57:29;;;;;;;6.30;4.30;;;17.20;99.90;;;;;;4130957;28;20031;-67
2023/06/17 02:59:33;;;;;;;7.28;4.05;;;17.20;99.90;;;;;;4132214;28;20076;-68
2023/06/17 03:01:40;;;;;;;4.30;3.90;;;17.20;99.90;;;;;;4130978;28;20536;-64
2023/06/17 03:03:41;;;;;;;3.22;2.63;;;17.20;99.90;;;;;;4131775;28;20089;-65
2023/06/17 03:05:43;;;;;;;3.67;3.38;;;17.20;99.90;;;;;;4131027;28;20362;-64
2023/06/17 03:07:45;;;;;;;4.22;3.45;;;17.20;99.90;;;;;;4131893;28;20019;-68
2023/06/17 03:09:46;;;;;;;5.95;3.70;;;17.20;99.90;;;;;;4130624;28;20120;-69
2023/06/17 03:11:47;;;;;;;5.55;3.50;;;17.20;99.90;;;;;;4131399;28;20557;-62
2023/06/17 03:13:49;;;;;;;3.67;2.92;;;17.20;99.90;;;;;;4131383;28;20088;-63
2023/06/17 03:15:50;;;;;;;3.70;3.17;;;17.20;99.90;;;;;;4131371;28;20092;-63
2023/06/17 03:17:52;;;;;;;2.88;2.60;;;17.20;99.90;;;;;;4131519;28;20030;-63
2023/06/17 03:19:53;;;;;;;3.13;2.83;;;17.20;99.90;;;;;;4130634;28;20038;-62
2023/06/17 03:21:54;;;;;;;5.45;3.10;;;17.20;99.90;;;;;;4131737;28;20050;-62
2023/06/17 03:23:59;;;;;;;2.88;2.60;;;17.20;99.90;;;;;;4130755;28;20433;-62
2023/06/17 03:26:00;;;;;;;2.72;2.53;;;17.20;99.90;;;;;;4131889;28;20034;-67
2023/06/17 03:28:03;;;;;;;3.28;2.83;;;17.20;99.90;;;;;;4130522;28;20092;-64
2023/06/17 03:30:04;;;;;;;2.90;2.60;;;17.20;99.90;;;;;;4131848;28;20034;-65
2023/06/17 03:32:06;;;;;;;3.30;2.78;;;17.20;99.90;;;;;;4130222;28;20093;-63
2023/06/17 03:34:07;;;;;;;4.05;2.58;;;17.20;99.90;;;;;;4131551;28;20422;-62
2023/06/17 03:36:08;;;;;;;5.35;2.90;;;17.30;99.90;;;;;;4130570;28;20073;-64
2023/06/17 03:38:09;;;;;;;3.25;2.35;;;17.30;99.90;;;;;;4131181;28;20709;-62
2023/06/17 03:40:13;;;;;;;3.15;2.85;;;17.30;99.90;;;;;;4130442;28;20034;-65
2023/06/17 03:42:16;;;;;;;4.78;2.80;;;17.30;99.90;;;;;;4131328;28;20038;-64
2023/06/17 03:44:17;;;;;;;4.78;3.17;;;17.30;99.90;;;;;;4130508;28;20431;-61
2023/06/17 03:46:19;;;;;;;3.78;2.83;;;17.30;99.90;;;;;;4130900;28;20061;-62
2023/06/17 03:48:20;;;;;;;6.03;2.67;;;17.30;99.90;;;;;;4129175;28;20104;-63
2023/06/17 03:50:22;;;;;;;3.08;2.28;;;17.40;99.90;;;;;;4130839;28;20042;-63
2023/06/17 03:52:23;;;;;;;3.25;2.75;;;17.40;99.90;;;;;;4131158;28;20048;-65
2023/06/17 03:54:25;;;;;;;4.53;2.72;;;17.40;99.90;;;;;;4129352;28;20054;-64
2023/06/17 03:56:26;;;;;;;3.33;2.95;;;17.50;99.90;;;;;;4130892;28;20458;-64
2023/06/17 03:58:28;;;;;;;5.18;3.42;;;17.50;99.90;;;;;;4129992;28;20093;-63
2023/06/17 04:00:29;;;;;;;4.15;3.05;;;17.50;99.90;;;;;;4131161;28;20172;-63
2023/06/17 04:02:30;;;;;;;3.83;3.10;;;17.60;99.90;;;;;;4129992;28;20077;-65
2023/06/17 04:04:34;;;;;;;3.22;2.92;;;17.60;99.90;;;;;;4131169;28;20030;-63
2023/06/17 04:06:35;;;;;;;4.10;3.25;;;17.60;99.90;;;;;;4129579;28;20554;-62
2023/06/17 04:08:37;;;;;;;5.30;4.25;;;17.60;99.90;;;;;;4131073;28;20088;-65
2023/06/17 04:10:39;;;;;;;4.57;3.55;;;17.60;99.90;;;;;;4129699;28;20479;-64
2023/06/17 04:12:42;;;;;;;4.45;3.53;;;17.60;99.90;;;;;;4130465;28;20097;-64
2023/06/17 04:14:43;;;;;;;12.63;4.78;;;17.60;99.90;;;;;;4129898;28;20089;-64
2023/06/17 04:16:45;;;;;;;5.35;4.10;;;17.60;99.90;;;;;;4130511;28;20019;-63
2023/06/17 04:18:46;;;;;;;4.65;4.18;;;17.60;99.90;;;;;;4130239;28;20019;-64
2023/06/17 04:20:49;;;;;;;5.00;4.28;;;17.60;99.90;;;;;;4130231;28;20088;-64
2023/06/17 04:22:50;;;;;;;4.85;4.28;;;17.60;99.90;;;;;;4129814;28;20038;-63
2023/06/17 04:24:55;;;;;;;6.07;4.47;;;17.70;99.90;;;;;;4128111;28;20078;-63
2023/06/17 04:26:57;;;;;;;4.80;4.10;;;17.70;99.90;;;;;;4130684;28;20022;-63
2023/06/17 04:29:00;;;;;;;5.97;3.90;;;17.70;99.90;;;;;;4129660;28;20089;-63
2023/06/17 04:31:02;;;;;;;6.30;4.00;;;17.80;99.90;;;;;;4130385;28;20042;-64
2023/06/17 04:33:03;;;;;;;3.45;2.58;;;17.80;99.90;;;;;;4128897;28;20101;-63
2023/06/17 04:35:05;;;;;;;4.40;3.08;;;17.80;99.90;;;;;;4144995;28;20038;-63
2023/06/17 04:37:06;;;;;;;4.13;3.13;;;17.70;99.90;;;;;;4129255;28;20031;-67
2023/06/17 04:39:07;;;;;;;4.15;3.45;;;17.80;99.90;;;;;;4130695;28;20122;-62
2023/06/17 04:41:09;;;;;;;5.88;3.55;;;17.80;99.90;;;;;;4128763;28;20097;-62
2023/06/17 04:43:10;;;;;;;5.70;3.50;;;17.80;99.90;;;;;;4129980;28;20038;-64
2023/06/17 04:45:11;;;;;;;5.43;4.15;;;17.90;99.90;;;;;;4129363;28;20030;-62
2023/06/17 04:47:12;;;;;;;4.95;3.65;;;17.90;99.90;;;;;;4130171;28;20069;-64
2023/06/17 04:49:14;;;;;;;5.15;3.88;;;18.00;99.90;;;;;;4129011;28;20030;-63
2023/06/17 04:51:17;;;;;;;5.57;3.72;;;18.00;99.90;;;;;;4130156;28;20026;-63
2023/06/17 04:53:18;;;;;;;4.15;3.45;;;18.00;99.90;;;;;;4129364;28;20065;-62
2023/06/17 04:55:21;;;;;;;4.65;3.70;;;18.00;99.90;;;;;;4129151;28;20073;-62
2023/06/17 04:57:22;;;;;;;4.35;3.28;;;18.00;99.90;;;;;;4129831;28;20479;-62
2023/06/17 04:59:24;;;;;;;8.65;4.43;;;18.00;99.90;;;;;;4128519;28;20062;-62
2023/06/17 05:01:25;;;;;;;4.93;3.45;;;18.00;99.90;;;;;;4130138;28;20074;-62
2023/06/17 05:03:26;;;;;;;3.65;3.20;;;18.10;99.90;;;;;;4128642;28;20034;-62
2023/06/17 05:05:27;;;;;;;3.50;3.08;;;18.10;99.90;;;;;;4130084;28;20030;-62
2023/06/17 05:07:28;;;;;;;3.08;2.78;;;18.20;99.90;;;;;;4128725;28;20471;-66
2023/06/17 05:09:29;;;;;;;5.10;3.45;;;18.20;99.90;;;;;;4129075;28;20034;-61
2023/06/17 05:11:31;;;;;;;4.72;3.10;;;18.30;99.90;;;;;;4128657;28;20018;-62
2023/06/17 05:13:32;;;;;;;4.15;3.05;;;18.30;99.90;;;;;;4129815;28;20430;-66
2023/06/17 05:15:33;;;;;;;4.43;3.03;;;18.30;99.90;;;;;;4128917;28;20088;-68
2023/06/17 05:17:34;;;;;;;3.22;2.92;;;18.30;99.90;;;;;;4130085;28;20015;-65
2023/06/17 05:19:35;;;;;;;4.20;3.30;;;18.30;99.90;;;;;;4128786;28;20027;-62
2023/06/17 05:21:36;;;;;;;3.97;3.58;;;18.30;99.90;;;;;;4129234;28;20046;-63
2023/06/17 05:23:37;;;;;;;3.83;3.00;;;18.40;99.90;;;;;;4143598;28;20072;-65
2023/06/17 05:25:39;;;;;;;5.18;4.00;;;18.40;99.90;;;;;;4129022;28;20077;-62
2023/06/17 05:27:40;;;;;;;4.07;3.10;;;18.40;99.90;;;;;;4129462;28;20105;-63
2023/06/17 05:29:41;;;;;;;3.50;3.10;;;18.40;99.90;;;;;;4128504;28;20093;-62
2023/06/17 05:31:42;;;;;;;4.07;3.10;;;18.40;99.90;;;;;;4129729;28;20073;-62
2023/06/17 05:33:43;;;;;;;3.13;2.78;;;18.50;99.90;;;;;;4128448;28;20089;-62
2023/06/17 05:35:44;;;;;;;3.60;3.20;;;18.60;99.90;;;;;;4129704;28;20105;-63
2023/06/17 05:37:45;;;;;;;3.00;2.70;;;18.60;99.90;;;;;;4128357;28;20065;-64
2023/06/17 05:39:47;;;;;;;2.97;2.53;;;18.60;99.90;;;;;;4129323;28;20034;-64
2023/06/17 05:41:48;;;;;;;3.08;2.58;;;18.70;99.90;;;;;;4128220;28;20045;-62
2023/06/17 05:43:49;;;;;;;4.25;2.55;;;18.60;99.90;;;;;;4129625;28;20150;-62
2023/06/17 05:45:50;;;;;;;4.60;2.88;;;18.70;99.90;;;;;;4128215;28;20034;-62
2023/06/17 05:47:52;;;;;;;2.88;2.45;;;18.70;99.90;;;;;;4128568;28;20042;-63
2023/06/17 05:49:53;;;;;;;4.13;2.10;;;18.80;99.90;;;;;;4127981;28;20479;-64
2023/06/17 05:51:54;;;;;;;2.33;2.08;;;18.80;99.90;;;;;;4129165;28;20113;-66
2023/06/17 05:53:55;;;;;;;2.05;1.70;;;18.80;99.90;;;;;;4128557;28;20081;-64
2023/06/17 05:55:56;;;;;;;4.93;2.10;;;18.90;99.90;;;;;;4128277;28;20030;-64
2023/06/17 05:57:57;;;;;;;3.90;2.65;;;18.90;99.90;;;;;;4128939;28;20538;-66
2023/06/17 05:59:59;;;;;;;3.05;2.20;;;19.00;99.90;;;;;;4127318;28;20430;-66
2023/06/17 06:02:00;;;;;;;2.65;2.38;;;19.00;99.90;;;;;;4129117;28;20483;-63
2023/06/17 06:04:01;;;;;;;2.22;1.85;;;19.00;99.90;;;;;;4128169;28;20026;-63
2023/06/17 06:06:02;;;;;;;2.50;2.30;;;19.00;99.90;;;;;;4129153;28;20447;-66
2023/06/17 06:08:03;;;;;;;3.30;2.42;;;18.90;99.90;;;;;;4127999;28;20061;-67
2023/06/17 06:10:06;;;;;;;4.47;2.33;;;18.90;99.90;;;;;;4128211;28;20478;-66
2023/06/17 06:12:07;;;;;;;3.25;2.47;;;18.90;99.90;;;;;;4127878;28;20038;-63
2023/06/17 06:14:09;;;;;;;4.20;1.88;;;18.90;99.90;;;;;;4129073;28;20035;-64
2023/06/17 06:16:10;;;;;;;2.20;1.90;;;18.90;99.90;;;;;;4128087;28;20426;-63
2023/06/17 06:18:11;;;;;;;4.45;2.50;;;19.00;99.90;;;;;;4129057;28;20038;-65
2023/06/17 06:20:13;;;;;;;3.83;2.33;;;18.90;99.90;;;;;;4127988;28;20383;-66
2023/06/17 06:22:14;;;;;;;6.47;3.08;;;18.90;99.90;;;;;;4128991;28;20038;-66
2023/06/17 06:24:15;;;;;;;4.38;3.95;;;18.80;99.90;;;;;;4128227;28;20085;-63
2023/06/17 06:26:16;;;;;;;5.43;4.55;;;18.70;99.90;;;;;;4128160;28;20438;-64
2023/06/17 06:28:17;;;;;;;4.13;3.70;;;18.60;99.90;;;;;;4128218;28;20434;-63
2023/06/17 06:30:18;;;;;;;5.10;4.00;;;18.50;99.90;;;;;;4127743;28;20038;-63
2023/06/17 06:32:19;;;;;;;5.57;4.20;;;18.50;99.90;;;;;;4127091;28;20038;-66
2023/06/17 06:34:20;;;;;;;4.53;4.07;;;18.40;99.90;;;;;;4127529;28;20026;-63
2023/06/17 06:36:21;;;;;;;7.13;4.40;;;18.30;99.90;;;;;;4143085;28;20042;-64
2023/06/17 06:38:22;;;;;;;5.55;4.20;;;18.30;99.90;;;;;;4127523;28;20065;-64
2023/06/17 06:40:24;;;;;;;6.20;4.15;;;18.20;99.90;;;;;;4128908;28;20565;-64
2023/06/17 06:42:25;;;;;;;5.22;4.25;;;18.10;99.90;;;;;;4127737;28;20046;-63
2023/06/17 06:44:26;;;;;;;5.95;4.40;;;18.10;99.90;;;;;;4128892;28;20038;-64
2023/06/17 06:46:27;;;;;;;5.85;4.60;;;18.10;99.90;;;;;;4127651;28;20133;-63
2023/06/17 06:48:28;;;;;;;7.07;4.45;;;18.10;99.90;;;;;;4128883;28;20026;-66
2023/06/17 06:50:29;;;;;;;6.35;4.63;;;18.10;99.90;;;;;;4127850;28;20089;-66
2023/06/17 06:52:31;;;;;;;11.18;8.63;;;18.10;99.90;;;;;;4128690;28;20089;-65
2023/06/17 06:54:32;;;;;;;2.50;2.28;;;18.10;99.90;;;;;;4142804;28;20077;-65
2023/06/17 06:56:33;;;;;;;4.15;2.22;;;18.10;99.90;;;;;;4128071;28;20038;-64
2023/06/17 06:58:35;;;;;;;3.92;2.05;;;18.00;99.90;;;;;;4128305;28;20435;-66
2023/06/17 07:00:36;;;;;;;2.60;1.80;;;18.00;99.90;;;;;;4127625;28;20027;-67
2023/06/17 07:02:37;;;;;;;3.47;1.55;;;17.90;99.90;;;;;;4128526;28;20022;-66
2023/06/17 07:04:38;;;;;;;2.05;1.70;;;17.90;99.90;;;;;;4127580;28;20035;-65
2023/06/17 07:06:39;;;;;;;2.38;1.80;;;17.90;99.90;;;;;;4128452;28;20034;-64
2023/06/17 07:08:40;;;;;;;2.95;2.05;;;17.80;99.90;;;;;;4142430;28;20088;-64
2023/06/17 07:10:41;;;;;;;2.90;2.00;;;17.80;99.90;;;;;;4128428;28;20050;-63
2023/06/17 07:12:43;;;;;;;2.45;2.08;;;17.80;99.90;;;;;;4127652;28;20101;-65
2023/06/17 07:14:44;;;;;;;6.53;2.85;;;17.80;99.90;;;;;;4128116;28;20046;-64
2023/06/17 07:16:45;;;;;;;3.13;2.10;;;17.90;99.90;;;;;;4127472;28;20434;-66
2023/06/17 07:18:46;;;;;;;3.75;1.90;;;17.90;99.90;;;;;;4128475;28;20030;-65
2023/06/17 07:20:47;;;;;;;2.53;1.70;;;18.00;99.90;;;;;;4127450;28;20073;-63
2023/06/17 07:22:48;;;;;;;2.25;1.98;;;18.00;99.90;;;;;;4127950;28;20051;-64
2023/06/17 07:24:50;;;;;;;1.85;1.65;;;18.10;99.90;;;;;;4127764;28;20039;-64
2023/06/17 07:26:51;;;;;;;2.20;1.77;;;18.10;99.90;;;;;;4127767;28;20097;-68
2023/06/17 07:28:52;;;;;;;2.20;1.73;;;18.10;99.90;;;;;;4128114;28;20081;-68
2023/06/17 07:30:53;;;;;;;1.98;1.80;;;18.20;99.90;;;;;;4127474;28;20035;-65
2023/06/17 07:32:55;;;;;;;2.65;2.45;;;18.20;99.90;;;;;;4129305;28;20073;-71
2023/06/17 07:34:56;;;;;;;4.93;3.03;;;18.30;99.90;;;;;;4130270;28;20553;-67
2023/06/17 07:36:57;;;;;;;2.33;1.90;;;18.40;99.90;;;;;;4131239;28;20076;-64
2023/06/17 07:38:58;;;;;;;2.40;2.20;;;18.40;99.90;;;;;;4130114;28;20479;-69
2023/06/17 07:41:00;;;;;;;6.57;2.42;;;18.50;99.90;;;;;;4131367;28;20382;-66
2023/06/17 07:43:01;;;;;;;3.67;2.35;;;18.60;99.90;;;;;;4129679;28;20038;-64
2023/06/17 07:45:02;;;;;;;1.92;1.80;;;18.60;99.90;;;;;;4131234;28;20038;-63
2023/06/17 07:47:04;;;;;;;5.57;1.77;;;18.70;99.90;;;;;;4129827;28;20022;-66
2023/06/17 07:49:05;;;;;;;2.65;2.20;;;18.70;99.90;;;;;;4130896;28;20030;-66
2023/06/17 07:51:07;;;;;;;3.92;2.10;;;18.80;99.90;;;;;;4129798;28;20471;-63
2023/06/17 07:53:08;;;;;;;2.95;2.28;;;18.80;99.90;;;;;;4130057;28;20097;-62
2023/06/17 07:55:09;;;;;;;1.90;1.70;;;18.90;99.90;;;;;;4130124;28;20057;-65
2023/06/17 07:57:10;;;;;;;2.30;2.10;;;19.00;99.90;;;;;;4129846;28;20038;-62
2023/06/17 07:59:11;;;;;;;2.22;1.85;;;19.20;99.90;;;;;;4130288;28;20084;-64
2023/06/17 08:01:12;;;;;;;6.75;4.32;;;19.30;99.90;;;;;;4128957;28;20046;-63
2023/06/17 08:03:14;;;;;;;11.15;8.70;;;19.50;99.90;;;;;;4144932;28;20514;-62
2023/06/17 08:05:15;;;;;;;4.00;2.47;;;19.70;99.90;;;;;;4129583;28;20034;-64
2023/06/17 08:07:16;;;;;;;3.22;2.45;;;19.80;99.90;;;;;;4130706;28;20092;-63
2023/06/17 08:09:17;;;;;;;2.72;2.47;;;19.80;99.90;;;;;;4128947;28;20569;-63
2023/06/17 08:11:18;;;;;;;5.18;3.40;;;19.90;99.90;;;;;;4130130;28;20046;-64
2023/06/17 08:13:20;;;;;;;3.05;2.75;;;19.90;99.90;;;;;;4129321;28;20079;-63
2023/06/17 08:15:22;;;;;;;2.95;2.50;;;20.00;99.90;;;;;;4130177;28;20085;-63
2023/06/17 08:17:23;;;;;;;5.20;2.55;;;20.10;99.90;;;;;;4129384;28;20443;-63
2023/06/17 08:19:24;;;;;;;2.85;2.63;;;20.30;99.90;;;;;;4128685;28;20077;-63
2023/06/17 08:21:26;;;;;;;2.60;2.40;;;20.40;99.90;;;;;;4129641;28;20034;-63
2023/06/17 08:23:27;;;;;;;2.80;2.42;;;20.30;99.90;;;;;;4129837;28;20042;-65
2023/06/17 08:25:28;;;;;;;3.25;2.30;;;20.20;99.90;;;;;;4129756;28;20026;-63
2023/06/17 08:27:29;;;;;;;2.40;2.20;;;20.20;99.90;;;;;;4129957;28;20046;-64
2023/06/17 08:29:31;;;;;;;3.97;2.67;;;20.30;99.90;;;;;;4129888;28;20018;-63
2023/06/17 08:31:32;;;;;;;3.13;2.45;;;20.30;99.90;;;;;;4129241;28;20018;-63
2023/06/17 08:33:33;;;;;;;3.33;2.05;;;20.40;99.90;;;;;;4129764;28;20224;-63
2023/06/17 08:35:34;;;;;;;3.38;2.28;;;20.50;99.90;;;;;;4129285;28;20050;-64
2023/06/17 08:37:35;;;;;;;2.65;2.45;;;20.50;99.90;;;;;;4144460;28;20046;-64
2023/06/17 08:39:39;;;;;;;4.72;2.88;;;20.60;99.90;;;;;;4129264;28;20038;-63
2023/06/17 08:41:42;;;;;;;3.15;2.50;;;20.60;99.90;;;;;;4130448;28;20434;-63
2023/06/17 08:43:46;;;;;;;2.88;2.58;;;20.50;99.90;;;;;;4127334;28;20073;-62
2023/06/17 08:45:51;;;;;;;3.10;2.55;;;20.60;99.90;;;;;;4130281;28;20549;-63
2023/06/17 08:47:52;;;;;;;9.52;2.85;;;20.60;99.90;;;;;;4128482;28;20043;-63
2023/06/17 08:49:58;;;;;;;5.97;3.08;;;20.70;99.90;;;;;;4130278;28;20030;-64
2023/06/17 08:52:00;;;;;;;13.30;4.28;;;20.70;99.90;;;;;;4129295;28;20034;-64
2023/06/17 08:54:02;;;;;;;6.25;3.08;;;20.70;99.90;;;;;;4129904;28;20034;-64
2023/06/17 08:56:03;;;;;;;2.92;2.40;;;20.70;99.90;;;;;;4128706;28;20050;-63
2023/06/17 08:58:05;;;;;;;2.90;2.08;;;20.70;99.90;;;;;;4129618;28;20089;-64
2023/06/17 09:00:11;;;;;;;5.38;2.63;;;20.70;99.90;;;;;;4129024;28;20019;-63
2023/06/17 09:02:14;;;;;;;2.42;2.22;;;20.60;99.90;;;;;;4128688;28;20054;-64
2023/06/17 09:04:17;;;;;;;4.60;2.25;;;20.70;99.90;;;;;;4128847;28;20034;-64
2023/06/17 09:06:27;;;;;;;2.40;2.20;;;20.70;99.90;;;;;;4129165;28;20023;-65
2023/06/17 09:08:32;;;;;;;3.95;2.20;;;20.70;99.90;;;;;;4128968;28;20183;-65
2023/06/17 09:10:43;;;;;;;3.47;2.25;;;20.70;99.90;;;;;;4128868;28;20076;-66
2023/06/17 09:12:44;;;;;;;2.65;2.10;;;20.70;99.90;;;;;;4144078;28;20037;-63
2023/06/17 09:14:45;;;;;;;2.28;2.03;;;20.60;99.90;;;;;;4128377;28;20053;-63
2023/06/17 09:16:46;;;;;;;3.65;2.05;;;20.60;99.90;;;;;;4129148;28;20081;-62
2023/06/17 09:18:48;;;;;;;2.17;2.00;;;20.50;99.90;;;;;;4128193;28;20570;-63
2023/06/17 09:20:52;;;;;;;2.65;1.80;;;20.50;99.90;;;;;;4129541;28;20031;-63
2023/06/17 09:22:53;;;;;;;3.55;2.35;;;20.40;99.90;;;;;;4128143;28;20574;-63
2023/06/17 09:25:00;;;;;;;5.00;2.55;;;20.50;99.90;;;;;;4129671;28;20034;-63
2023/06/17 09:27:02;;;;;;;4.93;2.20;;;20.50;99.90;;;;;;4128177;28;20097;-63
2023/06/17 09:29:05;;;;;;;4.25;3.28;;;20.50;99.90;;;;;;4129583;28;20073;-63
2023/06/17 09:31:06;;;;;;;5.72;2.15;;;20.50;99.90;;;;;;4128017;28;20481;-64
2023/06/17 09:33:21;;;;;;;7.72;2.03;;;20.40;99.90;;;;;;4129221;28;20042;-66
2023/06/17 09:35:22;;;;;;;6.20;2.75;;;20.40;99.90;;;;;;4128339;28;20050;-63
2023/06/17 09:37:24;;;;;;;8.25;2.45;;;20.40;99.90;;;;;;4128993;28;20042;-62
2023/06/17 09:39:32;;;;;;;9.23;3.10;;;20.60;99.90;;;;;;4127554;28;20046;-68
2023/06/17 09:41:37;;;;;;;2.95;2.08;;;20.70;99.90;;;;;;4129353;28;20088;-62
2023/06/17 09:43:39;;;;;;;1.50;1.17;;;20.70;99.90;;;;;;4127429;28;20085;-62
2023/06/17 09:45:40;;;;;;;2.83;1.45;;;20.90;99.90;;;;;;4128685;28;20077;-62
2023/06/17 09:47:41;;;;;;;3.28;1.75;;;21.20;99.90;;;;;;4128213;28;20297;-64
2023/06/17 09:49:45;;;;;;;2.47;1.90;;;21.40;99.90;;;;;;4128557;28;20085;-62
2023/06/17 09:51:47;;;;;;;1.70;1.50;;;21.50;99.90;;;;;;4128321;28;20038;-66
2023/06/17 09:53:50;;;;;;;1.52;1.40;;;21.60;99.90;;;;;;4128273;28;20027;-62
2023/06/17 09:55:56;;;;;;;1.00;1.00;;;21.70;99.90;;;;;;4128570;28;20050;-67
2023/06/17 09:58:01;;;;;;;1.17;1.08;;;21.80;99.90;;;;;;4127882;28;20466;-65
2023/06/17 10:00:14;;;;;;;2.55;1.40;;;22.10;99.90;;;;;;4129286;28;20038;-66
2023/06/17 10:02:15;;;;;;;2.15;1.15;;;22.10;99.90;;;;;;4127299;28;20561;-63
2023/06/17 10:04:16;;;;;;;1.60;1.00;;;22.10;99.90;;;;;;4129009;28;20458;-63
2023/06/17 10:06:19;;;;;;;1.50;1.40;;;22.20;99.90;;;;;;4127565;28;20664;-62
2023/06/17 10:08:22;;;;;;;2.00;1.05;;;22.20;99.90;;;;;;4128712;28;20026;-63
2023/06/17 10:10:24;;;;;;;3.13;1.40;;;22.20;99.90;;;;;;4127584;28;20104;-63
2023/06/17 10:12:27;;;;;;;1.95;1.20;;;22.20;99.90;;;;;;4128939;28;20030;-66
2023/06/17 10:14:32;;;;;;;1.73;1.48;;;22.30;99.90;;;;;;4127535;28;20537;-62
2023/06/17 10:16:41;;;;;;;3.15;1.13;;;22.30;99.90;;;;;;4128516;28;20081;-61
2023/06/17 10:18:47;;;;;;;4.03;1.90;;;22.30;99.90;;;;;;4127437;28;20574;-65
2023/06/17 10:20:50;;;;;;;5.25;1.92;;;22.40;99.90;;;;;;4128374;28;20034;-63
2023/06/17 10:22:54;;;;;;;4.40;1.13;;;22.30;99.90;;;;;;4127500;28;20081;-62
2023/06/17 10:24:55;;;;;;;3.15;1.30;;;22.20;99.90;;;;;;4128372;28;20410;-63
2023/06/17 10:27:02;;;;;;;6.03;1.73;;;22.10;99.90;;;;;;4127446;28;20050;-63
2023/06/17 10:29:10;;;;;;;10.65;2.05;;;22.20;99.90;;;;;;4128598;28;20034;-66
2023/06/17 10:31:31;;;;;;;5.15;1.55;;;22.10;99.90;;;;;;4127351;28;20042;-68
2023/06/17 10:33:32;;;;;;;1.27;1.17;;;22.20;99.90;;;;;;4128610;28;20022;-64
2023/06/17 10:35:41;;;;;;;2.17;1.10;;;22.20;99.90;;;;;;4127026;28;20439;-68